This is the latest recevied weather packets stored in our database for station/object KD0KHX-10. If no packets are shown the sender has not sent any weather packets the latest 10 day(s).
| Time | Temp. | Humidity | Pressure | Rain* | Wind** | Luminosity | Snow |
|---|---|---|---|---|---|---|---|
| 1777637103 | 1.11° C | 70% | 1014 hPa | 0 mm | - | - | - |
| 1777636472 | 0.56° C | 70% | 1013.8 hPa | 0 mm | - | - | - |
| 1777635872 | 0.56° C | 72% | 1013.7 hPa | 0 mm | - | - | - |
| 1777635303 | 0° C | 74% | 1013.8 hPa | 0 mm | - | - | - |
| 1777635003 | 0° C | 75% | 1013.9 hPa | 0 mm | - | - | - |
| 1777634973 | 0° C | 75% | 1013.9 hPa | 0 mm | - | - | - |
| 1777634403 | 0° C | 77% | 1013.8 hPa | 0 mm | - | - | - |
| 1777634103 | 0.56° C | 75% | 1013.9 hPa | 0 mm | - | - | - |
| 1777633937 | 0.56° C | 74% | 1013.9 hPa | 0 mm | - | - | - |
| 1777633773 | 0° C | 77% | 1014 hPa | 0 mm | - | - | - |
| 1777633203 | 0° C | 79% | 1014 hPa | 0 mm | - | - | - |
| 1777633038 | 0° C | 79% | 1014 hPa | 0 mm | - | - | - |
| 1777632603 | 0.56° C | 79% | 1014.1 hPa | 0 mm | - | - | - |
| 1777632272 | 1.11° C | 78% | 1014 hPa | 0 mm | - | - | - |
| 1777631703 | 1.11° C | 77% | 1014.1 hPa | 0 mm | - | - | - |
| 1777631403 | 1.11° C | 77% | 1014.1 hPa | 0 mm | - | - | - |
| 1777631373 | 1.11° C | 77% | 1014.1 hPa | 0 mm | - | - | - |
| 1777630803 | 1.67° C | 76% | 1014.2 hPa | 0 mm | - | - | - |
| 1777630637 | 1.67° C | 76% | 1014.2 hPa | 0 mm | - | - | - |
| 1777630203 | 1.67° C | 77% | 1014.2 hPa | 0 mm | - | - | - |
| 1777629903 | 1.67° C | 77% | 1014.2 hPa | 0 mm | - | - | - |
| 1777629874 | 1.67° C | 77% | 1014.2 hPa | 0 mm | - | - | - |
| 1777629573 | 1.67° C | 78% | 1014.2 hPa | 0 mm | - | - | - |
| 1777629003 | 1.67° C | 77% | 1014.3 hPa | 0 mm | - | - | - |
| 1777628403 | 1.67° C | 78% | 1014.3 hPa | 0 mm | - | - | - |
* Rain latest hour (hover to see other rain measurements)
** Current wind speed in m/s (hover to see current wind gust speed)